Terminal Aerodrome Forecast
Issued by NWS

Current Version | Previous Version | Graphics & Text | Print | Product List | Glossary On
Versions: 1 2 3 4 5 6 7 8 9 10 11 12 13 14 15 16 17 18
000
FTUS41 KPBZ 232300
TAFHLG
TAF
KHLG 232320Z 2400/2424 26008KT P6SM SKC
     FM241300 16005KT P6SM BKN250
     FM241800 20010G22KT P6SM BKN120=

USA.gov is the U.S. government's official web portal to all federal, state and local government web resources and services.